sensor_id;sensor_type;location;lat;lon;timestamp;pressure;altitude;pressure_sealevel;temperature;humidity
12763;BME280;6445;52.490;13.378;2024-01-27T00:00:32;94795.44;;;-146.10;100.00
12763;BME280;6445;52.490;13.378;2024-01-27T00:02:57;95571.97;;;-146.10;100.00
12763;BME280;6445;52.490;13.378;2024-01-27T00:05:23;95571.97;;;-146.10;100.00
12763;BME280;6445;52.490;13.378;2024-01-27T00:07:48;95571.97;;;-146.10;100.00
12763;BME280;6445;52.490;13.378;2024-01-27T00:10:13;94277.81;;;-146.10;100.00
12763;BME280;6445;52.490;13.378;2024-01-27T00:12:39;92984.13;;;-146.10;100.00
12763;BME280;6445;52.490;13.378;2024-01-27T00:15:07;93501.53;;;-146.10;100.00
12763;BME280;6445;52.490;13.378;2024-01-27T00:17:32;94019.06;;;-146.10;100.00
12763;BME280;6445;52.490;13.378;2024-01-27T00:19:59;94795.44;;;-146.10;100.00
12763;BME280;6445;52.490;13.378;2024-01-27T00:22:24;94536.63;;;-146.10;100.00
12763;BME280;6445;52.490;13.378;2024-01-27T00:24:49;95313.09;;;-146.10;100.00
12763;BME280;6445;52.490;13.378;2024-01-27T00:27:15;95313.09;;;-146.10;100.00
12763;BME280;6445;52.490;13.378;2024-01-27T00:29:41;94277.81;;;-146.10;100.00
12763;BME280;6445;52.490;13.378;2024-01-27T00:32:06;94536.63;;;-146.10;100.00
12763;BME280;6445;52.490;13.378;2024-01-27T00:34:31;94277.81;;;-146.10;100.00
12763;BME280;6445;52.490;13.378;2024-01-27T00:36:56;93242.81;;;-146.10;100.00
12763;BME280;6445;52.490;13.378;2024-01-27T00:39:22;90915.03;;;-146.10;100.00
12763;BME280;6445;52.490;13.378;2024-01-27T00:41:47;90915.03;;;-146.10;100.00
12763;BME280;6445;52.490;13.378;2024-01-27T00:44:13;91432.19;;;-146.10;100.00
12763;BME280;6445;52.490;13.378;2024-01-27T00:46:38;91173.59;;;-146.10;100.00
12763;BME280;6445;52.490;13.378;2024-01-27T00:49:03;91690.81;;;-146.10;100.00
12763;BME280;6445;52.490;13.378;2024-01-27T00:51:29;91949.44;;;-146.10;100.00
12763;BME280;6445;52.490;13.378;2024-01-27T00:53:54;90139.41;;;-146.10;100.00
12763;BME280;6445;52.490;13.378;2024-01-27T00:56:19;88071.75;;;-146.10;100.00
12763;BME280;6445;52.490;13.378;2024-01-27T00:58:44;85488.72;;;-146.10;100.00
12763;BME280;6445;52.490;13.378;2024-01-27T01:01:10;84714.13;;;-146.10;100.00
12763;BME280;6445;52.490;13.378;2024-01-27T01:03:35;82649.28;;;-146.10;100.00
12763;BME280;6445;52.490;13.378;2024-01-27T01:06:01;84972.31;;;-146.10;100.00
12763;BME280;6445;52.490;13.378;2024-01-27T01:08:26;84972.31;;;-146.10;100.00
12763;BME280;6445;52.490;13.378;2024-01-27T01:10:51;85746.97;;;-146.10;100.00
12763;BME280;6445;52.490;13.378;2024-01-27T01:13:16;86780.03;;;-146.10;100.00
12763;BME280;6445;52.490;13.378;2024-01-27T01:15:42;86263.47;;;-146.10;100.00
12763;BME280;6445;52.490;13.378;2024-01-27T01:18:07;84714.13;;;-146.10;100.00
12763;BME280;6445;52.490;13.378;2024-01-27T01:20:32;84972.31;;;-146.10;100.00
12763;BME280;6445;52.490;13.378;2024-01-27T01:22:58;85488.72;;;-146.10;100.00
12763;BME280;6445;52.490;13.378;2024-01-27T01:25:23;86263.47;;;-146.10;100.00
12763;BME280;6445;52.490;13.378;2024-01-27T01:27:48;87038.34;;;-146.10;100.00
12763;BME280;6445;52.490;13.378;2024-01-27T01:30:15;87038.34;;;-146.10;100.00
12763;BME280;6445;52.490;13.378;2024-01-27T01:32:40;87038.34;;;-146.10;100.00
12763;BME280;6445;52.490;13.378;2024-01-27T01:35:06;86005.19;;;-146.10;100.00
12763;BME280;6445;52.490;13.378;2024-01-27T01:37:31;87038.34;;;-146.10;100.00
12763;BME280;6445;52.490;13.378;2024-01-27T01:39:56;87296.69;;;-146.10;100.00
12763;BME280;6445;52.490;13.378;2024-01-27T01:42:22;87813.38;;;-146.10;100.00
12763;BME280;6445;52.490;13.378;2024-01-27T01:44:49;88330.16;;;-146.10;100.00
12763;BME280;6445;52.490;13.378;2024-01-27T01:47:15;87555.03;;;-146.10;100.00
12763;BME280;6445;52.490;13.378;2024-01-27T01:49:40;89363.91;;;-146.10;100.00
12763;BME280;6445;52.490;13.378;2024-01-27T01:52:06;89622.38;;;-146.10;100.00
12763;BME280;6445;52.490;13.378;2024-01-27T01:54:32;90139.41;;;-146.10;100.00
12763;BME280;6445;52.490;13.378;2024-01-27T01:56:58;90656.47;;;-146.10;100.00
12763;BME280;6445;52.490;13.378;2024-01-27T01:59:24;90397.91;;;-146.10;100.00
12763;BME280;6445;52.490;13.378;2024-01-27T02:01:49;91949.44;;;-146.10;100.00
12763;BME280;6445;52.490;13.378;2024-01-27T02:04:14;92466.75;;;-146.10;100.00
12763;BME280;6445;52.490;13.378;2024-01-27T02:06:40;92984.13;;;-146.10;100.00
12763;BME280;6445;52.490;13.378;2024-01-27T02:09:05;92725.41;;;-146.10;100.00
12763;BME280;6445;52.490;13.378;2024-01-27T02:11:30;93242.81;;;-146.10;100.00
12763;BME280;6445;52.490;13.378;2024-01-27T02:13:56;94277.81;;;-146.10;100.00
12763;BME280;6445;52.490;13.378;2024-01-27T02:16:21;94277.81;;;-146.10;100.00
12763;BME280;6445;52.490;13.378;2024-01-27T02:18:46;95054.25;;;-146.10;100.00
12763;BME280;6445;52.490;13.378;2024-01-27T02:21:12;94019.06;;;-146.10;100.00
12763;BME280;6445;52.490;13.378;2024-01-27T02:23:37;94536.63;;;-146.10;100.00
12763;BME280;6445;52.490;13.378;2024-01-27T02:26:02;94795.44;;;-146.10;100.00
12763;BME280;6445;52.490;13.378;2024-01-27T02:28:27;94536.63;;;-146.10;100.00
12763;BME280;6445;52.490;13.378;2024-01-27T02:30:57;94277.81;;;-146.10;100.00
12763;BME280;6445;52.490;13.378;2024-01-27T02:33:22;95054.25;;;-146.10;100.00
12763;BME280;6445;52.490;13.378;2024-01-27T02:35:47;94536.63;;;-146.10;100.00
12763;BME280;6445;52.490;13.378;2024-01-27T02:38:13;94536.63;;;-146.10;100.00
12763;BME280;6445;52.490;13.378;2024-01-27T02:40:38;94536.63;;;-146.10;100.00
12763;BME280;6445;52.490;13.378;2024-01-27T02:43:03;95054.25;;;-146.10;100.00
12763;BME280;6445;52.490;13.378;2024-01-27T02:45:29;94795.44;;;-146.10;100.00
12763;BME280;6445;52.490;13.378;2024-01-27T02:47:54;94536.63;;;-146.10;100.00
12763;BME280;6445;52.490;13.378;2024-01-27T02:50:19;94795.44;;;-146.10;100.00
12763;BME280;6445;52.490;13.378;2024-01-27T02:52:44;94536.63;;;-146.10;100.00
12763;BME280;6445;52.490;13.378;2024-01-27T02:55:10;94536.63;;;-146.10;100.00
12763;BME280;6445;52.490;13.378;2024-01-27T02:57:35;94277.81;;;-146.10;100.00
12763;BME280;6445;52.490;13.378;2024-01-27T03:00:00;94536.63;;;-146.10;100.00
12763;BME280;6445;52.490;13.378;2024-01-27T03:02:25;95054.25;;;-146.10;100.00
12763;BME280;6445;52.490;13.378;2024-01-27T03:04:51;95313.09;;;-146.10;100.00
12763;BME280;6445;52.490;13.378;2024-01-27T03:07:16;94795.44;;;-146.10;100.00
12763;BME280;6445;52.490;13.378;2024-01-27T03:09:41;94277.81;;;-146.10;100.00
12763;BME280;6445;52.490;13.378;2024-01-27T03:12:07;94277.81;;;-146.10;100.00
12763;BME280;6445;52.490;13.378;2024-01-27T03:14:32;95313.09;;;-146.10;100.00
12763;BME280;6445;52.490;13.378;2024-01-27T03:16:58;95571.97;;;-146.10;100.00
12763;BME280;6445;52.490;13.378;2024-01-27T03:19:23;96348.63;;;-146.10;100.00
12763;BME280;6445;52.490;13.378;2024-01-27T03:21:48;97902.44;;;-146.10;100.00
12763;BME280;6445;52.490;13.378;2024-01-27T03:24:14;98679.56;;;-146.10;100.00
12763;BME280;6445;52.490;13.378;2024-01-27T03:26:39;99715.97;;;-146.10;100.00
12763;BME280;6445;52.490;13.378;2024-01-27T03:29:04;100493.44;;;-146.10;100.00
12763;BME280;6445;52.490;13.378;2024-01-27T03:31:33;101011.81;;;-146.10;100.00
12763;BME280;6445;52.490;13.378;2024-01-27T03:33:59;101789.53;;;-146.10;100.00
12763;BME280;6445;52.490;13.378;2024-01-27T03:36:24;102826.75;;;-146.10;100.00
12763;BME280;6445;52.490;13.378;2024-01-27T03:38:49;104383.03;;;-146.10;100.00
12763;BME280;6445;52.490;13.378;2024-01-27T03:41:15;105161.41;;;-146.10;100.00
12763;BME280;6445;52.490;13.378;2024-01-27T03:43:40;105161.41;;;-146.10;100.00
12763;BME280;6445;52.490;13.378;2024-01-27T03:46:05;105161.41;;;-146.10;100.00
12763;BME280;6445;52.490;13.378;2024-01-27T03:48:30;105420.88;;;-146.10;100.00
12763;BME280;6445;52.490;13.378;2024-01-27T03:50:56;105939.91;;;-146.10;100.00
12763;BME280;6445;52.490;13.378;2024-01-27T03:53:21;106718.56;;;-146.10;100.00
12763;BME280;6445;52.490;13.378;2024-01-27T03:55:46;107237.78;;;-146.10;100.00
12763;BME280;6445;52.490;13.378;2024-01-27T03:58:12;106718.56;;;-146.10;100.00
12763;BME280;6445;52.490;13.378;2024-01-27T04:00:37;107497.38;;;-146.10;100.00
12763;BME280;6445;52.490;13.378;2024-01-27T04:03:02;107757.03;;;-146.10;100.00
12763;BME280;6445;52.490;13.378;2024-01-27T04:05:29;107757.03;;;-146.10;100.00
12763;BME280;6445;52.490;13.378;2024-01-27T04:07:55;108276.34;;;-146.10;100.00
12763;BME280;6445;52.490;13.378;2024-01-27T04:10:21;108536.03;;;-146.10;100.00
12763;BME280;6445;52.490;13.378;2024-01-27T04:12:46;108536.03;;;-146.10;100.00
12763;BME280;6445;52.490;13.378;2024-01-27T04:15:12;108536.03;;;-146.10;100.00
12763;BME280;6445;52.490;13.378;2024-01-27T04:17:37;108795.75;;;-146.10;100.00
12763;BME280;6445;52.490;13.378;2024-01-27T04:20:03;108795.75;;;-146.10;100.00
12763;BME280;6445;52.490;13.378;2024-01-27T04:22:29;109055.47;;;-146.10;100.00
12763;BME280;6445;52.490;13.378;2024-01-27T04:24:55;109055.47;;;-146.10;100.00
12763;BME280;6445;52.490;13.378;2024-01-27T04:27:20;109055.47;;;-146.10;100.00
12763;BME280;6445;52.490;13.378;2024-01-27T04:29:45;109055.47;;;-146.10;100.00
12763;BME280;6445;52.490;13.378;2024-01-27T04:32:11;109315.19;;;-146.10;100.00
12763;BME280;6445;52.490;13.378;2024-01-27T04:34:37;109574.94;;;-146.10;100.00
12763;BME280;6445;52.490;13.378;2024-01-27T04:37:02;109574.94;;;-146.10;100.00
12763;BME280;6445;52.490;13.378;2024-01-27T04:39:27;109315.19;;;-146.10;100.00
12763;BME280;6445;52.490;13.378;2024-01-27T04:41:52;109055.47;;;-146.10;100.00
12763;BME280;6445;52.490;13.378;2024-01-27T04:44:18;109315.19;;;-146.10;100.00
12763;BME280;6445;52.490;13.378;2024-01-27T04:46:45;109574.94;;;-146.10;100.00
12763;BME280;6445;52.490;13.378;2024-01-27T04:49:10;109315.19;;;-146.10;100.00
12763;BME280;6445;52.490;13.378;2024-01-27T04:51:36;108795.75;;;-146.10;100.00
12763;BME280;6445;52.490;13.378;2024-01-27T04:54:01;108536.03;;;-146.10;100.00
12763;BME280;6445;52.490;13.378;2024-01-27T04:56:26;108016.69;;;-146.10;100.00
12763;BME280;6445;52.490;13.378;2024-01-27T04:58:52;107237.78;;;-146.10;100.00
12763;BME280;6445;52.490;13.378;2024-01-27T05:01:17;107237.78;;;-146.10;100.00
12763;BME280;6445;52.490;13.378;2024-01-27T05:03:42;106978.16;;;-146.10;100.00
12763;BME280;6445;52.490;13.378;2024-01-27T05:06:08;106718.56;;;-146.10;100.00
12763;BME280;6445;52.490;13.378;2024-01-27T05:08:34;106459.00;;;-146.10;100.00
12763;BME280;6445;52.490;13.378;2024-01-27T05:11:00;106459.00;;;-146.10;100.00
12763;BME280;6445;52.490;13.378;2024-01-27T05:13:25;106199.44;;;-146.10;100.00
12763;BME280;6445;52.490;13.378;2024-01-27T05:15:50;106718.56;;;-146.10;100.00
12763;BME280;6445;52.490;13.378;2024-01-27T05:18:15;106718.56;;;-146.10;100.00
12763;BME280;6445;52.490;13.378;2024-01-27T05:20:41;106199.44;;;-146.10;100.00
12763;BME280;6445;52.490;13.378;2024-01-27T05:23:06;106199.44;;;-146.10;100.00
12763;BME280;6445;52.490;13.378;2024-01-27T05:25:31;106459.00;;;-146.10;100.00
12763;BME280;6445;52.490;13.378;2024-01-27T05:27:57;106459.00;;;-146.10;100.00
12763;BME280;6445;52.490;13.378;2024-01-27T05:30:22;106459.00;;;-146.10;100.00
12763;BME280;6445;52.490;13.378;2024-01-27T05:32:47;105939.91;;;-146.10;100.00
12763;BME280;6445;52.490;13.378;2024-01-27T05:35:12;106199.44;;;-146.10;100.00
12763;BME280;6445;52.490;13.378;2024-01-27T05:37:38;105939.91;;;-146.10;100.00
12763;BME280;6445;52.490;13.378;2024-01-27T05:40:06;105680.38;;;-146.10;100.00
12763;BME280;6445;52.490;13.378;2024-01-27T05:42:31;105420.88;;;-146.10;100.00
12763;BME280;6445;52.490;13.378;2024-01-27T05:44:56;105680.38;;;-146.10;100.00
12763;BME280;6445;52.490;13.378;2024-01-27T05:47:21;105939.91;;;-146.10;100.00
12763;BME280;6445;52.490;13.378;2024-01-27T05:49:47;105939.91;;;-146.10;100.00
12763;BME280;6445;52.490;13.378;2024-01-27T05:52:12;105939.91;;;-146.10;100.00
12763;BME280;6445;52.490;13.378;2024-01-27T05:54:39;105939.91;;;-146.10;100.00
12763;BME280;6445;52.490;13.378;2024-01-27T05:57:05;106199.44;;;-146.10;100.00
12763;BME280;6445;52.490;13.378;2024-01-27T05:59:30;106718.56;;;-146.10;100.00
12763;BME280;6445;52.490;13.378;2024-01-27T06:01:55;106459.00;;;-146.10;100.00
12763;BME280;6445;52.490;13.378;2024-01-27T06:04:22;106459.00;;;-146.10;100.00
12763;BME280;6445;52.490;13.378;2024-01-27T06:06:48;106459.00;;;-146.10;100.00
12763;BME280;6445;52.490;13.378;2024-01-27T06:09:13;105939.91;;;-146.10;100.00
12763;BME280;6445;52.490;13.378;2024-01-27T06:11:39;105680.38;;;-146.10;100.00
12763;BME280;6445;52.490;13.378;2024-01-27T06:14:04;106199.44;;;-146.10;100.00
12763;BME280;6445;52.490;13.378;2024-01-27T06:16:29;105939.91;;;-146.10;100.00
12763;BME280;6445;52.490;13.378;2024-01-27T06:18:55;105680.38;;;-146.10;100.00
12763;BME280;6445;52.490;13.378;2024-01-27T06:21:21;105420.88;;;-146.10;100.00
12763;BME280;6445;52.490;13.378;2024-01-27T06:23:46;105161.41;;;-146.10;100.00
12763;BME280;6445;52.490;13.378;2024-01-27T06:26:13;104901.91;;;-146.10;100.00
12763;BME280;6445;52.490;13.378;2024-01-27T06:28:38;104901.91;;;-146.10;100.00
12763;BME280;6445;52.490;13.378;2024-01-27T06:31:04;105161.41;;;-146.10;100.00
12763;BME280;6445;52.490;13.378;2024-01-27T06:33:30;105680.38;;;-146.10;100.00
12763;BME280;6445;52.490;13.378;2024-01-27T06:35:56;106199.44;;;-146.10;100.00
12763;BME280;6445;52.490;13.378;2024-01-27T06:38:21;106459.00;;;-146.10;100.00
12763;BME280;6445;52.490;13.378;2024-01-27T06:40:46;106718.56;;;-146.10;100.00
12763;BME280;6445;52.490;13.378;2024-01-27T06:43:12;106718.56;;;-146.10;100.00
12763;BME280;6445;52.490;13.378;2024-01-27T06:45:38;106978.16;;;-146.10;100.00
12763;BME280;6445;52.490;13.378;2024-01-27T06:48:04;106978.16;;;-146.10;100.00
12763;BME280;6445;52.490;13.378;2024-01-27T06:50:29;107237.78;;;-146.10;100.00
12763;BME280;6445;52.490;13.378;2024-01-27T06:52:54;107237.78;;;-146.10;100.00
12763;BME280;6445;52.490;13.378;2024-01-27T06:55:20;107237.78;;;-146.10;100.00
12763;BME280;6445;52.490;13.378;2024-01-27T06:57:45;107237.78;;;-146.10;100.00
12763;BME280;6445;52.490;13.378;2024-01-27T07:00:10;107237.78;;;-146.10;100.00
12763;BME280;6445;52.490;13.378;2024-01-27T07:02:39;106978.16;;;-146.10;100.00
12763;BME280;6445;52.490;13.378;2024-01-27T07:05:05;107237.78;;;-146.10;100.00
12763;BME280;6445;52.490;13.378;2024-01-27T07:07:30;107237.78;;;-146.10;100.00
12763;BME280;6445;52.490;13.378;2024-01-27T07:09:56;106978.16;;;-146.10;100.00
12763;BME280;6445;52.490;13.378;2024-01-27T07:12:21;107237.78;;;-146.10;100.00
12763;BME280;6445;52.490;13.378;2024-01-27T07:14:46;106978.16;;;-146.10;100.00
12763;BME280;6445;52.490;13.378;2024-01-27T07:17:12;106718.56;;;-146.10;100.00
12763;BME280;6445;52.490;13.378;2024-01-27T07:19:37;107237.78;;;-146.10;100.00
12763;BME280;6445;52.490;13.378;2024-01-27T07:22:02;106718.56;;;-146.10;100.00
12763;BME280;6445;52.490;13.378;2024-01-27T07:24:31;106718.56;;;-146.10;100.00
12763;BME280;6445;52.490;13.378;2024-01-27T07:26:56;106459.00;;;-146.10;100.00
12763;BME280;6445;52.490;13.378;2024-01-27T07:29:23;106199.44;;;-146.10;100.00
12763;BME280;6445;52.490;13.378;2024-01-27T07:31:49;106199.44;;;-146.10;100.00
12763;BME280;6445;52.490;13.378;2024-01-27T07:34:15;105680.38;;;-146.10;100.00
12763;BME280;6445;52.490;13.378;2024-01-27T07:36:40;105420.88;;;-146.10;100.00
12763;BME280;6445;52.490;13.378;2024-01-27T07:39:05;105420.88;;;-146.10;100.00
12763;BME280;6445;52.490;13.378;2024-01-27T07:41:31;105161.41;;;-146.10;100.00
12763;BME280;6445;52.490;13.378;2024-01-27T07:43:56;104901.91;;;-146.10;100.00
12763;BME280;6445;52.490;13.378;2024-01-27T07:46:21;105161.41;;;-146.10;100.00
12763;BME280;6445;52.490;13.378;2024-01-27T07:48:48;105161.41;;;-146.10;100.00
12763;BME280;6445;52.490;13.378;2024-01-27T07:51:14;104901.91;;;-146.10;100.00
12763;BME280;6445;52.490;13.378;2024-01-27T07:53:39;104383.03;;;-146.10;100.00
12763;BME280;6445;52.490;13.378;2024-01-27T07:56:05;104383.03;;;-146.10;100.00
12763;BME280;6445;52.490;13.378;2024-01-27T07:58:30;104123.59;;;-146.10;100.00
12763;BME280;6445;52.490;13.378;2024-01-27T08:00:55;103864.19;;;-146.10;100.00
12763;BME280;6445;52.490;13.378;2024-01-27T08:03:21;103345.44;;;-146.10;100.00
12763;BME280;6445;52.490;13.378;2024-01-27T08:05:46;103345.44;;;-146.10;100.00
12763;BME280;6445;52.490;13.378;2024-01-27T08:08:11;103345.44;;;-146.10;100.00
12763;BME280;6445;52.490;13.378;2024-01-27T08:10:36;103345.44;;;-146.10;100.00
12763;BME280;6445;52.490;13.378;2024-01-27T08:13:02;103345.44;;;-146.10;100.00
12763;BME280;6445;52.490;13.378;2024-01-27T08:15:27;103086.06;;;-146.10;100.00
12763;BME280;6445;52.490;13.378;2024-01-27T08:17:52;103086.06;;;-146.10;100.00
12763;BME280;6445;52.490;13.378;2024-01-27T08:20:17;102826.75;;;-146.10;100.00
12763;BME280;6445;52.490;13.378;2024-01-27T08:22:43;102826.75;;;-146.10;100.00
12763;BME280;6445;52.490;13.378;2024-01-27T08:25:08;102308.09;;;-146.10;100.00
12763;BME280;6445;52.490;13.378;2024-01-27T08:27:34;102048.81;;;-146.10;100.00
12763;BME280;6445;52.490;13.378;2024-01-27T08:29:59;101530.28;;;-146.10;100.00
12763;BME280;6445;52.490;13.378;2024-01-27T08:32:24;101530.28;;;-146.10;100.00
12763;BME280;6445;52.490;13.378;2024-01-27T08:34:49;101011.81;;;-146.10;100.00
12763;BME280;6445;52.490;13.378;2024-01-27T08:37:18;100752.63;;;-146.10;100.00
12763;BME280;6445;52.490;13.378;2024-01-27T08:39:43;99975.09;;;-146.10;100.00
12763;BME280;6445;52.490;13.378;2024-01-27T08:42:08;100493.44;;;-146.10;100.00
12763;BME280;6445;52.490;13.378;2024-01-27T08:44:34;99715.97;;;-146.10;100.00
12763;BME280;6445;52.490;13.378;2024-01-27T08:46:59;99197.72;;;-146.10;100.00
12763;BME280;6445;52.490;13.378;2024-01-27T08:49:24;99456.84;;;-146.10;100.00
12763;BME280;6445;52.490;13.378;2024-01-27T08:51:49;98938.63;;;-146.10;100.00
12763;BME280;6445;52.490;13.378;2024-01-27T08:54:15;98420.50;;;-146.10;100.00
12763;BME280;6445;52.490;13.378;2024-01-27T08:56:40;98161.47;;;-146.10;100.00
12763;BME280;6445;52.490;13.378;2024-01-27T08:59:06;98420.50;;;-146.10;100.00
12763;BME280;6445;52.490;13.378;2024-01-27T09:01:31;98679.56;;;-146.10;100.00
12763;BME280;6445;52.490;13.378;2024-01-27T09:03:56;98679.56;;;-146.10;100.00
12763;BME280;6445;52.490;13.378;2024-01-27T09:06:22;98161.47;;;-146.10;100.00
12763;BME280;6445;52.490;13.378;2024-01-27T09:08:47;97125.47;;;-146.10;100.00
12763;BME280;6445;52.490;13.378;2024-01-27T09:11:12;97384.44;;;-146.10;100.00
12763;BME280;6445;52.490;13.378;2024-01-27T09:13:37;96348.63;;;-146.10;100.00
12763;BME280;6445;52.490;13.378;2024-01-27T09:16:03;96607.56;;;-146.10;100.00
12763;BME280;6445;52.490;13.378;2024-01-27T09:18:28;96866.50;;;-146.10;100.00
12763;BME280;6445;52.490;13.378;2024-01-27T09:20:53;96089.72;;;-146.10;100.00
12763;BME280;6445;52.490;13.378;2024-01-27T09:23:19;95054.25;;;-146.10;100.00
12763;BME280;6445;52.490;13.378;2024-01-27T09:25:44;96089.72;;;-146.10;100.00
12763;BME280;6445;52.490;13.378;2024-01-27T09:28:09;95054.25;;;-146.10;100.00
12763;BME280;6445;52.490;13.378;2024-01-27T09:30:34;95571.97;;;-146.10;100.00
12763;BME280;6445;52.490;13.378;2024-01-27T09:33:00;95571.97;;;-146.10;100.00
12763;BME280;6445;52.490;13.378;2024-01-27T09:35:25;95830.84;;;-146.10;100.00
12763;BME280;6445;52.490;13.378;2024-01-27T09:37:50;95830.84;;;-146.10;100.00
12763;BME280;6445;52.490;13.378;2024-01-27T09:40:16;95313.09;;;-146.10;100.00
12763;BME280;6445;52.490;13.378;2024-01-27T09:42:51;95571.97;;;-146.10;100.00
12763;BME280;6445;52.490;13.378;2024-01-27T09:45:18;95313.09;;;-146.10;100.00
12763;BME280;6445;52.490;13.378;2024-01-27T09:47:45;95830.84;;;-146.10;100.00
12763;BME280;6445;52.490;13.378;2024-01-27T09:50:11;95830.84;;;-146.10;100.00
12763;BME280;6445;52.490;13.378;2024-01-27T09:52:36;95054.25;;;-146.10;100.00
12763;BME280;6445;52.490;13.378;2024-01-27T09:55:02;93501.53;;;-146.10;100.00
12763;BME280;6445;52.490;13.378;2024-01-27T09:57:28;93501.53;;;-146.10;100.00
12763;BME280;6445;52.490;13.378;2024-01-27T09:59:54;92208.09;;;-146.10;100.00
12763;BME280;6445;52.490;13.378;2024-01-27T10:02:22;91949.44;;;-146.10;100.00
12763;BME280;6445;52.490;13.378;2024-01-27T10:04:49;92725.41;;;-146.10;100.00
12763;BME280;6445;52.490;13.378;2024-01-27T10:07:14;91949.44;;;-146.10;100.00
12763;BME280;6445;52.490;13.378;2024-01-27T10:09:39;92725.41;;;-146.10;100.00
12763;BME280;6445;52.490;13.378;2024-01-27T10:12:07;92725.41;;;-146.10;100.00
12763;BME280;6445;52.490;13.378;2024-01-27T10:14:40;93242.81;;;-146.10;100.00
12763;BME280;6445;52.490;13.378;2024-01-27T10:17:09;93760.28;;;-146.10;100.00
12763;BME280;6445;52.490;13.378;2024-01-27T10:19:34;93501.53;;;-146.10;100.00
12763;BME280;6445;52.490;13.378;2024-01-27T10:22:00;92208.09;;;-146.10;100.00
12763;BME280;6445;52.490;13.378;2024-01-27T10:24:27;90139.41;;;-146.10;100.00
12763;BME280;6445;52.490;13.378;2024-01-27T10:26:59;89880.88;;;-146.10;100.00
12763;BME280;6445;52.490;13.378;2024-01-27T10:29:24;90139.41;;;-146.10;100.00
12763;BME280;6445;52.490;13.378;2024-01-27T10:31:50;89880.88;;;-146.10;100.00
12763;BME280;6445;52.490;13.378;2024-01-27T10:34:19;89622.38;;;-146.10;100.00
12763;BME280;6445;52.490;13.378;2024-01-27T10:36:44;90656.47;;;-146.10;100.00
12763;BME280;6445;52.490;13.378;2024-01-27T10:39:20;90397.91;;;-146.10;100.00
12763;BME280;6445;52.490;13.378;2024-01-27T10:41:46;89622.38;;;-146.10;100.00
12763;BME280;6445;52.490;13.378;2024-01-27T10:44:17;90397.91;;;-146.10;100.00
12763;BME280;6445;52.490;13.378;2024-01-27T10:46:43;92466.75;;;-146.10;100.00
12763;BME280;6445;52.490;13.378;2024-01-27T10:49:11;91949.44;;;-146.10;100.00
12763;BME280;6445;52.490;13.378;2024-01-27T10:51:40;91690.81;;;-146.10;100.00
12763;BME280;6445;52.490;13.378;2024-01-27T10:54:12;90139.41;;;-146.10;100.00
12763;BME280;6445;52.490;13.378;2024-01-27T10:56:39;89363.91;;;-146.10;100.00
12763;BME280;6445;52.490;13.378;2024-01-27T10:59:07;90397.91;;;-146.10;100.00
12763;BME280;6445;52.490;13.378;2024-01-27T11:01:35;90656.47;;;-146.10;100.00
12763;BME280;6445;52.490;13.378;2024-01-27T11:04:01;89880.88;;;-146.10;100.00
12763;BME280;6445;52.490;13.378;2024-01-27T11:06:29;89622.38;;;-146.10;100.00
12763;BME280;6445;52.490;13.378;2024-01-27T11:08:56;88071.75;;;-146.10;100.00
12763;BME280;6445;52.490;13.378;2024-01-27T11:11:22;87296.69;;;-146.10;100.00
12763;BME280;6445;52.490;13.378;2024-01-27T11:13:47;87038.34;;;-146.10;100.00
12763;BME280;6445;52.490;13.378;2024-01-27T11:16:17;86005.19;;;-146.10;100.00
12763;BME280;6445;52.490;13.378;2024-01-27T11:18:43;84455.97;;;-146.10;100.00
12763;BME280;6445;52.490;13.378;2024-01-27T11:21:13;81101.34;;;-146.10;98.79
12763;BME280;6445;52.490;13.378;2024-01-27T11:23:38;81359.31;;;-146.10;99.04
12763;BME280;6445;52.490;13.378;2024-01-27T11:26:08;82133.25;;;-146.10;99.18
12763;BME280;6445;52.490;13.378;2024-01-27T11:28:34;83165.41;;;-146.10;99.95
12763;BME280;6445;52.490;13.378;2024-01-27T11:31:05;84972.31;;;-146.10;100.00
12763;BME280;6445;52.490;13.378;2024-01-27T11:33:30;86780.03;;;-146.10;100.00
12763;BME280;6445;52.490;13.378;2024-01-27T11:36:02;89363.91;;;-146.10;100.00
12763;BME280;6445;52.490;13.378;2024-01-27T11:38:28;91690.81;;;-146.10;100.00
12763;BME280;6445;52.490;13.378;2024-01-27T11:40:53;91432.19;;;-146.10;100.00
12763;BME280;6445;52.490;13.378;2024-01-27T11:43:18;88847.00;;;-146.10;100.00
12763;BME280;6445;52.490;13.378;2024-01-27T11:45:54;89622.38;;;-146.10;100.00
12763;BME280;6445;52.490;13.378;2024-01-27T11:48:20;89880.88;;;-146.10;100.00
12763;BME280;6445;52.490;13.378;2024-01-27T11:50:45;90915.03;;;-146.10;100.00
12763;BME280;6445;52.490;13.378;2024-01-27T11:53:10;91173.59;;;-146.10;100.00
12763;BME280;6445;52.490;13.378;2024-01-27T11:55:36;90656.47;;;-146.10;100.00
12763;BME280;6445;52.490;13.378;2024-01-27T11:58:02;92466.75;;;-146.10;100.00
12763;BME280;6445;52.490;13.378;2024-01-27T12:00:27;92466.75;;;-146.10;100.00
12763;BME280;6445;52.490;13.378;2024-01-27T12:02:52;91173.59;;;-146.10;100.00
12763;BME280;6445;52.490;13.378;2024-01-27T12:05:18;91432.19;;;-146.10;100.00
12763;BME280;6445;52.490;13.378;2024-01-27T12:07:43;90915.03;;;-146.10;100.00
12763;BME280;6445;52.490;13.378;2024-01-27T12:10:09;91432.19;;;-146.10;100.00
12763;BME280;6445;52.490;13.378;2024-01-27T12:12:35;90397.91;;;-146.10;100.00
12763;BME280;6445;52.490;13.378;2024-01-27T12:15:00;89105.44;;;-146.10;100.00
12763;BME280;6445;52.490;13.378;2024-01-27T12:17:27;89105.44;;;-146.10;100.00